sensor_id;sensor_type;location;lat;lon;timestamp;P1;durP1;ratioP1;P2;durP2;ratioP2
6205;SDS011;3136;48.788;9.772;2023-11-21T00:02:20;5.43;;;2.87;;
6205;SDS011;3136;48.788;9.772;2023-11-21T00:04:47;8.03;;;2.90;;
6205;SDS011;3136;48.788;9.772;2023-11-21T00:07:13;8.17;;;3.00;;
6205;SDS011;3136;48.788;9.772;2023-11-21T00:09:39;7.33;;;3.20;;
6205;SDS011;3136;48.788;9.772;2023-11-21T00:12:06;12.53;;;3.30;;
6205;SDS011;3136;48.788;9.772;2023-11-21T00:14:35;9.17;;;2.50;;
6205;SDS011;3136;48.788;9.772;2023-11-21T00:17:01;13.77;;;3.00;;
6205;SDS011;3136;48.788;9.772;2023-11-21T00:19:27;8.23;;;2.63;;
6205;SDS011;3136;48.788;9.772;2023-11-21T00:21:53;12.27;;;3.00;;
6205;SDS011;3136;48.788;9.772;2023-11-21T00:24:19;10.07;;;2.57;;
6205;SDS011;3136;48.788;9.772;2023-11-21T00:26:44;6.80;;;2.40;;
6205;SDS011;3136;48.788;9.772;2023-11-21T00:29:10;7.47;;;2.83;;
6205;SDS011;3136;48.788;9.772;2023-11-21T00:31:36;4.43;;;2.57;;
6205;SDS011;3136;48.788;9.772;2023-11-21T00:34:02;10.00;;;3.13;;
6205;SDS011;3136;48.788;9.772;2023-11-21T00:36:30;8.17;;;2.97;;
6205;SDS011;3136;48.788;9.772;2023-11-21T00:38:56;8.93;;;2.87;;
6205;SDS011;3136;48.788;9.772;2023-11-21T00:41:22;9.20;;;3.17;;
6205;SDS011;3136;48.788;9.772;2023-11-21T00:43:48;9.37;;;3.10;;
6205;SDS011;3136;48.788;9.772;2023-11-21T00:46:13;11.37;;;3.10;;
6205;SDS011;3136;48.788;9.772;2023-11-21T00:48:39;5.90;;;2.70;;
6205;SDS011;3136;48.788;9.772;2023-11-21T00:51:04;10.13;;;3.20;;
6205;SDS011;3136;48.788;9.772;2023-11-21T00:53:31;6.67;;;2.97;;
6205;SDS011;3136;48.788;9.772;2023-11-21T00:55:57;9.60;;;2.90;;
6205;SDS011;3136;48.788;9.772;2023-11-21T00:58:25;7.20;;;3.20;;
6205;SDS011;3136;48.788;9.772;2023-11-21T01:00:51;6.50;;;3.23;;
6205;SDS011;3136;48.788;9.772;2023-11-21T01:03:17;5.90;;;2.93;;
6205;SDS011;3136;48.788;9.772;2023-11-21T01:05:43;6.83;;;3.53;;
6205;SDS011;3136;48.788;9.772;2023-11-21T01:08:10;11.23;;;3.03;;
6205;SDS011;3136;48.788;9.772;2023-11-21T01:10:36;7.13;;;3.27;;
6205;SDS011;3136;48.788;9.772;2023-11-21T01:13:01;8.97;;;3.70;;
6205;SDS011;3136;48.788;9.772;2023-11-21T01:15:30;8.27;;;2.90;;
6205;SDS011;3136;48.788;9.772;2023-11-21T01:17:56;6.73;;;2.80;;
6205;SDS011;3136;48.788;9.772;2023-11-21T01:20:22;9.23;;;3.37;;
6205;SDS011;3136;48.788;9.772;2023-11-21T01:22:48;7.60;;;3.17;;
6205;SDS011;3136;48.788;9.772;2023-11-21T01:25:14;7.30;;;2.93;;
6205;SDS011;3136;48.788;9.772;2023-11-21T01:27:41;7.07;;;3.10;;
6205;SDS011;3136;48.788;9.772;2023-11-21T01:30:07;11.20;;;3.27;;
6205;SDS011;3136;48.788;9.772;2023-11-21T01:32:34;7.53;;;3.13;;
6205;SDS011;3136;48.788;9.772;2023-11-21T01:34:59;11.83;;;3.60;;
6205;SDS011;3136;48.788;9.772;2023-11-21T01:37:25;12.30;;;3.57;;
6205;SDS011;3136;48.788;9.772;2023-11-21T01:39:53;8.57;;;3.40;;
6205;SDS011;3136;48.788;9.772;2023-11-21T01:42:20;9.47;;;3.37;;
6205;SDS011;3136;48.788;9.772;2023-11-21T01:44:46;7.70;;;3.67;;
6205;SDS011;3136;48.788;9.772;2023-11-21T01:47:11;12.57;;;3.40;;
6205;SDS011;3136;48.788;9.772;2023-11-21T01:49:38;7.03;;;3.23;;
6205;SDS011;3136;48.788;9.772;2023-11-21T01:52:04;8.87;;;3.50;;
6205;SDS011;3136;48.788;9.772;2023-11-21T01:54:31;6.70;;;3.67;;
6205;SDS011;3136;48.788;9.772;2023-11-21T01:57:00;12.13;;;4.03;;
6205;SDS011;3136;48.788;9.772;2023-11-21T01:59:28;10.70;;;3.70;;
6205;SDS011;3136;48.788;9.772;2023-11-21T02:01:59;10.70;;;3.83;;
6205;SDS011;3136;48.788;9.772;2023-11-21T02:04:25;10.03;;;3.50;;
6205;SDS011;3136;48.788;9.772;2023-11-21T02:06:51;14.43;;;3.93;;
6205;SDS011;3136;48.788;9.772;2023-11-21T02:09:17;9.63;;;3.80;;
6205;SDS011;3136;48.788;9.772;2023-11-21T02:11:47;10.87;;;3.90;;
6205;SDS011;3136;48.788;9.772;2023-11-21T02:14:14;11.37;;;3.93;;
6205;SDS011;3136;48.788;9.772;2023-11-21T02:16:40;8.03;;;3.30;;
6205;SDS011;3136;48.788;9.772;2023-11-21T02:19:07;12.00;;;3.80;;
6205;SDS011;3136;48.788;9.772;2023-11-21T02:21:35;10.87;;;4.17;;
6205;SDS011;3136;48.788;9.772;2023-11-21T02:24:05;8.63;;;4.00;;
6205;SDS011;3136;48.788;9.772;2023-11-21T02:26:31;9.20;;;3.83;;
6205;SDS011;3136;48.788;9.772;2023-11-21T02:28:57;7.50;;;3.70;;
6205;SDS011;3136;48.788;9.772;2023-11-21T02:31:23;9.83;;;3.67;;
6205;SDS011;3136;48.788;9.772;2023-11-21T02:33:48;10.77;;;4.10;;
6205;SDS011;3136;48.788;9.772;2023-11-21T02:36:14;12.43;;;3.77;;
6205;SDS011;3136;48.788;9.772;2023-11-21T02:38:40;13.17;;;3.50;;
6205;SDS011;3136;48.788;9.772;2023-11-21T02:41:05;7.40;;;3.30;;
6205;SDS011;3136;48.788;9.772;2023-11-21T02:43:31;11.63;;;4.50;;
6205;SDS011;3136;48.788;9.772;2023-11-21T02:45:56;7.73;;;2.97;;
6205;SDS011;3136;48.788;9.772;2023-11-21T02:48:22;14.87;;;4.47;;
6205;SDS011;3136;48.788;9.772;2023-11-21T02:50:50;8.63;;;3.60;;
6205;SDS011;3136;48.788;9.772;2023-11-21T02:53:18;10.83;;;3.30;;
6205;SDS011;3136;48.788;9.772;2023-11-21T02:55:43;8.13;;;3.43;;
6205;SDS011;3136;48.788;9.772;2023-11-21T02:58:09;11.67;;;3.53;;
6205;SDS011;3136;48.788;9.772;2023-11-21T03:00:34;8.27;;;3.50;;
6205;SDS011;3136;48.788;9.772;2023-11-21T03:03:00;9.93;;;3.60;;
6205;SDS011;3136;48.788;9.772;2023-11-21T03:05:26;9.30;;;3.67;;
6205;SDS011;3136;48.788;9.772;2023-11-21T03:07:51;8.23;;;3.60;;
6205;SDS011;3136;48.788;9.772;2023-11-21T03:10:17;6.53;;;3.50;;
6205;SDS011;3136;48.788;9.772;2023-11-21T03:12:42;7.43;;;3.60;;
6205;SDS011;3136;48.788;9.772;2023-11-21T03:15:09;7.47;;;3.57;;
6205;SDS011;3136;48.788;9.772;2023-11-21T03:17:35;9.47;;;3.60;;
6205;SDS011;3136;48.788;9.772;2023-11-21T03:20:01;8.17;;;3.97;;
6205;SDS011;3136;48.788;9.772;2023-11-21T03:22:27;10.57;;;3.63;;
6205;SDS011;3136;48.788;9.772;2023-11-21T03:24:53;7.67;;;4.33;;
6205;SDS011;3136;48.788;9.772;2023-11-21T03:27:19;4.40;;;3.37;;
6205;SDS011;3136;48.788;9.772;2023-11-21T03:29:44;7.97;;;3.80;;
6205;SDS011;3136;48.788;9.772;2023-11-21T03:32:11;11.67;;;4.00;;
6205;SDS011;3136;48.788;9.772;2023-11-21T03:34:42;10.13;;;4.23;;
6205;SDS011;3136;48.788;9.772;2023-11-21T03:37:20;9.33;;;4.00;;
6205;SDS011;3136;48.788;9.772;2023-11-21T03:39:45;9.10;;;4.37;;
6205;SDS011;3136;48.788;9.772;2023-11-21T03:42:11;12.93;;;4.27;;
6205;SDS011;3136;48.788;9.772;2023-11-21T03:44:37;7.27;;;4.03;;
6205;SDS011;3136;48.788;9.772;2023-11-21T03:47:03;7.17;;;4.40;;
6205;SDS011;3136;48.788;9.772;2023-11-21T03:49:28;9.43;;;4.10;;
6205;SDS011;3136;48.788;9.772;2023-11-21T03:51:54;14.57;;;4.03;;
6205;SDS011;3136;48.788;9.772;2023-11-21T03:54:21;8.23;;;4.23;;
6205;SDS011;3136;48.788;9.772;2023-11-21T03:56:46;14.53;;;4.40;;
6205;SDS011;3136;48.788;9.772;2023-11-21T03:59:12;6.83;;;4.60;;
6205;SDS011;3136;48.788;9.772;2023-11-21T04:01:37;9.07;;;3.73;;
6205;SDS011;3136;48.788;9.772;2023-11-21T04:04:03;10.20;;;4.10;;
6205;SDS011;3136;48.788;9.772;2023-11-21T04:06:29;7.10;;;3.97;;
6205;SDS011;3136;48.788;9.772;2023-11-21T04:08:54;6.67;;;3.60;;
6205;SDS011;3136;48.788;9.772;2023-11-21T04:11:20;8.13;;;3.53;;
6205;SDS011;3136;48.788;9.772;2023-11-21T04:13:45;7.77;;;3.67;;
6205;SDS011;3136;48.788;9.772;2023-11-21T04:16:12;7.27;;;3.40;;
6205;SDS011;3136;48.788;9.772;2023-11-21T04:18:37;6.80;;;3.47;;
6205;SDS011;3136;48.788;9.772;2023-11-21T04:21:06;6.50;;;3.57;;
6205;SDS011;3136;48.788;9.772;2023-11-21T04:23:33;6.80;;;3.87;;
6205;SDS011;3136;48.788;9.772;2023-11-21T04:26:00;10.93;;;4.10;;
6205;SDS011;3136;48.788;9.772;2023-11-21T04:28:27;6.77;;;3.60;;
6205;SDS011;3136;48.788;9.772;2023-11-21T04:30:53;10.93;;;3.80;;
6205;SDS011;3136;48.788;9.772;2023-11-21T04:33:18;8.47;;;3.50;;
6205;SDS011;3136;48.788;9.772;2023-11-21T04:35:44;10.17;;;3.50;;
6205;SDS011;3136;48.788;9.772;2023-11-21T04:38:10;9.03;;;3.93;;
6205;SDS011;3136;48.788;9.772;2023-11-21T04:40:36;6.83;;;3.30;;
6205;SDS011;3136;48.788;9.772;2023-11-21T04:43:01;5.10;;;3.73;;
6205;SDS011;3136;48.788;9.772;2023-11-21T04:45:27;4.20;;;2.90;;
6205;SDS011;3136;48.788;9.772;2023-11-21T04:47:53;6.10;;;3.33;;
6205;SDS011;3136;48.788;9.772;2023-11-21T04:50:18;5.57;;;3.23;;
6205;SDS011;3136;48.788;9.772;2023-11-21T04:52:44;5.27;;;3.10;;
6205;SDS011;3136;48.788;9.772;2023-11-21T04:55:10;9.23;;;3.13;;
6205;SDS011;3136;48.788;9.772;2023-11-21T04:57:36;7.63;;;3.10;;
6205;SDS011;3136;48.788;9.772;2023-11-21T05:00:02;7.63;;;3.50;;
6205;SDS011;3136;48.788;9.772;2023-11-21T05:02:34;7.53;;;3.43;;
6205;SDS011;3136;48.788;9.772;2023-11-21T05:05:00;10.00;;;3.77;;
6205;SDS011;3136;48.788;9.772;2023-11-21T05:07:26;15.10;;;4.63;;
6205;SDS011;3136;48.788;9.772;2023-11-21T05:09:54;9.80;;;4.30;;
6205;SDS011;3136;48.788;9.772;2023-11-21T05:12:21;10.00;;;3.97;;
6205;SDS011;3136;48.788;9.772;2023-11-21T05:14:48;10.77;;;3.80;;
6205;SDS011;3136;48.788;9.772;2023-11-21T05:17:14;8.80;;;4.10;;
6205;SDS011;3136;48.788;9.772;2023-11-21T05:19:39;13.70;;;4.13;;
6205;SDS011;3136;48.788;9.772;2023-11-21T05:22:05;8.67;;;4.40;;
6205;SDS011;3136;48.788;9.772;2023-11-21T05:24:31;16.80;;;4.30;;
6205;SDS011;3136;48.788;9.772;2023-11-21T05:26:57;9.13;;;4.27;;
6205;SDS011;3136;48.788;9.772;2023-11-21T05:29:22;8.63;;;3.93;;
6205;SDS011;3136;48.788;9.772;2023-11-21T05:31:48;9.53;;;4.43;;
6205;SDS011;3136;48.788;9.772;2023-11-21T05:34:14;12.23;;;4.27;;
6205;SDS011;3136;48.788;9.772;2023-11-21T05:36:42;8.67;;;4.03;;
6205;SDS011;3136;48.788;9.772;2023-11-21T05:39:08;8.07;;;3.87;;
6205;SDS011;3136;48.788;9.772;2023-11-21T05:41:36;10.87;;;3.70;;
6205;SDS011;3136;48.788;9.772;2023-11-21T05:44:01;10.03;;;3.93;;
6205;SDS011;3136;48.788;9.772;2023-11-21T05:46:27;8.33;;;3.90;;
6205;SDS011;3136;48.788;9.772;2023-11-21T05:48:53;6.70;;;3.83;;
6205;SDS011;3136;48.788;9.772;2023-11-21T05:51:18;7.43;;;3.50;;
6205;SDS011;3136;48.788;9.772;2023-11-21T05:53:44;9.30;;;3.93;;
6205;SDS011;3136;48.788;9.772;2023-11-21T05:56:09;6.33;;;3.73;;
6205;SDS011;3136;48.788;9.772;2023-11-21T05:58:35;9.43;;;3.67;;
6205;SDS011;3136;48.788;9.772;2023-11-21T06:01:01;6.60;;;3.90;;
6205;SDS011;3136;48.788;9.772;2023-11-21T06:03:27;10.70;;;4.00;;
6205;SDS011;3136;48.788;9.772;2023-11-21T06:05:53;8.87;;;3.77;;
6205;SDS011;3136;48.788;9.772;2023-11-21T06:08:19;7.03;;;3.80;;
6205;SDS011;3136;48.788;9.772;2023-11-21T06:10:44;7.03;;;4.20;;
6205;SDS011;3136;48.788;9.772;2023-11-21T06:13:10;7.00;;;4.70;;
6205;SDS011;3136;48.788;9.772;2023-11-21T06:15:35;11.73;;;4.80;;
6205;SDS011;3136;48.788;9.772;2023-11-21T06:18:01;13.60;;;4.50;;
6205;SDS011;3136;48.788;9.772;2023-11-21T06:20:27;8.20;;;4.30;;
6205;SDS011;3136;48.788;9.772;2023-11-21T06:22:52;7.97;;;4.20;;
6205;SDS011;3136;48.788;9.772;2023-11-21T06:25:18;9.87;;;4.50;;
6205;SDS011;3136;48.788;9.772;2023-11-21T06:27:45;16.20;;;4.87;;
6205;SDS011;3136;48.788;9.772;2023-11-21T06:30:13;9.13;;;4.20;;
6205;SDS011;3136;48.788;9.772;2023-11-21T06:32:40;23.13;;;4.80;;
6205;SDS011;3136;48.788;9.772;2023-11-21T06:35:06;8.50;;;4.50;;
6205;SDS011;3136;48.788;9.772;2023-11-21T06:37:36;10.13;;;4.80;;
6205;SDS011;3136;48.788;9.772;2023-11-21T06:40:02;8.87;;;4.37;;
6205;SDS011;3136;48.788;9.772;2023-11-21T06:42:31;12.20;;;4.80;;
6205;SDS011;3136;48.788;9.772;2023-11-21T06:44:58;10.50;;;5.23;;
6205;SDS011;3136;48.788;9.772;2023-11-21T06:47:24;10.60;;;4.57;;
6205;SDS011;3136;48.788;9.772;2023-11-21T06:49:50;9.20;;;4.63;;
6205;SDS011;3136;48.788;9.772;2023-11-21T06:52:17;13.87;;;4.57;;
6205;SDS011;3136;48.788;9.772;2023-11-21T06:54:43;13.20;;;4.87;;
6205;SDS011;3136;48.788;9.772;2023-11-21T06:57:09;10.87;;;4.83;;
6205;SDS011;3136;48.788;9.772;2023-11-21T06:59:34;12.70;;;4.53;;
6205;SDS011;3136;48.788;9.772;2023-11-21T07:02:00;5.40;;;3.73;;
6205;SDS011;3136;48.788;9.772;2023-11-21T07:04:26;6.63;;;3.87;;
6205;SDS011;3136;48.788;9.772;2023-11-21T07:06:53;11.90;;;4.47;;
6205;SDS011;3136;48.788;9.772;2023-11-21T07:09:18;9.83;;;4.50;;
6205;SDS011;3136;48.788;9.772;2023-11-21T07:11:47;7.93;;;5.10;;
6205;SDS011;3136;48.788;9.772;2023-11-21T07:14:15;8.77;;;4.17;;
6205;SDS011;3136;48.788;9.772;2023-11-21T07:16:42;10.23;;;4.57;;
6205;SDS011;3136;48.788;9.772;2023-11-21T07:19:08;7.57;;;4.30;;
6205;SDS011;3136;48.788;9.772;2023-11-21T07:21:34;6.50;;;4.03;;
6205;SDS011;3136;48.788;9.772;2023-11-21T07:24:01;10.57;;;4.37;;
6205;SDS011;3136;48.788;9.772;2023-11-21T07:26:31;10.00;;;4.33;;
6205;SDS011;3136;48.788;9.772;2023-11-21T07:28:56;9.30;;;4.30;;
6205;SDS011;3136;48.788;9.772;2023-11-21T07:31:22;9.57;;;4.57;;
6205;SDS011;3136;48.788;9.772;2023-11-21T07:33:49;8.70;;;4.37;;
6205;SDS011;3136;48.788;9.772;2023-11-21T07:36:15;10.53;;;4.27;;
6205;SDS011;3136;48.788;9.772;2023-11-21T07:38:43;12.60;;;4.50;;
6205;SDS011;3136;48.788;9.772;2023-11-21T07:41:10;6.70;;;4.60;;
6205;SDS011;3136;48.788;9.772;2023-11-21T07:43:36;7.10;;;4.00;;
6205;SDS011;3136;48.788;9.772;2023-11-21T07:46:02;8.63;;;4.27;;
6205;SDS011;3136;48.788;9.772;2023-11-21T07:48:31;11.77;;;4.40;;
6205;SDS011;3136;48.788;9.772;2023-11-21T07:50:58;9.73;;;4.37;;
6205;SDS011;3136;48.788;9.772;2023-11-21T07:53:24;6.57;;;4.33;;
6205;SDS011;3136;48.788;9.772;2023-11-21T07:56:02;9.70;;;4.10;;
6205;SDS011;3136;48.788;9.772;2023-11-21T07:58:28;8.33;;;4.00;;
6205;SDS011;3136;48.788;9.772;2023-11-21T08:00:54;7.20;;;3.93;;
6205;SDS011;3136;48.788;9.772;2023-11-21T08:03:19;5.43;;;3.80;;
6205;SDS011;3136;48.788;9.772;2023-11-21T08:05:46;8.50;;;4.07;;
6205;SDS011;3136;48.788;9.772;2023-11-21T08:08:11;5.90;;;4.40;;
6205;SDS011;3136;48.788;9.772;2023-11-21T08:10:37;7.63;;;4.20;;
6205;SDS011;3136;48.788;9.772;2023-11-21T08:13:03;5.47;;;3.90;;
6205;SDS011;3136;48.788;9.772;2023-11-21T08:15:31;5.00;;;3.80;;
6205;SDS011;3136;48.788;9.772;2023-11-21T08:17:57;10.67;;;4.33;;
6205;SDS011;3136;48.788;9.772;2023-11-21T08:20:24;8.40;;;4.07;;
6205;SDS011;3136;48.788;9.772;2023-11-21T08:22:50;4.90;;;3.80;;
6205;SDS011;3136;48.788;9.772;2023-11-21T08:25:16;6.53;;;3.77;;
6205;SDS011;3136;48.788;9.772;2023-11-21T08:27:44;6.40;;;3.70;;
6205;SDS011;3136;48.788;9.772;2023-11-21T08:30:10;4.30;;;3.40;;
6205;SDS011;3136;48.788;9.772;2023-11-21T08:32:37;5.50;;;3.60;;
6205;SDS011;3136;48.788;9.772;2023-11-21T08:35:03;7.87;;;3.80;;
6205;SDS011;3136;48.788;9.772;2023-11-21T08:37:29;7.43;;;3.90;;
6205;SDS011;3136;48.788;9.772;2023-11-21T08:39:57;5.50;;;3.90;;
6205;SDS011;3136;48.788;9.772;2023-11-21T08:42:24;6.63;;;3.83;;
6205;SDS011;3136;48.788;9.772;2023-11-21T08:44:50;5.37;;;3.53;;
6205;SDS011;3136;48.788;9.772;2023-11-21T08:47:16;4.20;;;3.40;;
6205;SDS011;3136;48.788;9.772;2023-11-21T08:49:41;5.60;;;3.83;;
6205;SDS011;3136;48.788;9.772;2023-11-21T08:52:07;9.80;;;4.00;;
6205;SDS011;3136;48.788;9.772;2023-11-21T08:54:33;6.37;;;3.97;;
6205;SDS011;3136;48.788;9.772;2023-11-21T08:56:59;10.00;;;4.20;;
6205;SDS011;3136;48.788;9.772;2023-11-21T08:59:25;7.97;;;3.63;;
6205;SDS011;3136;48.788;9.772;2023-11-21T09:01:51;4.87;;;3.47;;
6205;SDS011;3136;48.788;9.772;2023-11-21T09:04:17;3.80;;;3.00;;
6205;SDS011;3136;48.788;9.772;2023-11-21T09:06:45;4.50;;;3.57;;
6205;SDS011;3136;48.788;9.772;2023-11-21T09:09:11;7.33;;;3.37;;
6205;SDS011;3136;48.788;9.772;2023-11-21T09:11:36;4.80;;;3.10;;
6205;SDS011;3136;48.788;9.772;2023-11-21T09:14:02;5.57;;;3.60;;
6205;SDS011;3136;48.788;9.772;2023-11-21T09:16:28;4.30;;;3.00;;
6205;SDS011;3136;48.788;9.772;2023-11-21T09:18:54;3.87;;;2.67;;
6205;SDS011;3136;48.788;9.772;2023-11-21T09:21:20;3.83;;;2.40;;
6205;SDS011;3136;48.788;9.772;2023-11-21T09:23:46;4.60;;;2.63;;
6205;SDS011;3136;48.788;9.772;2023-11-21T09:26:12;5.37;;;2.83;;
6205;SDS011;3136;48.788;9.772;2023-11-21T09:28:37;3.10;;;2.50;;
6205;SDS011;3136;48.788;9.772;2023-11-21T09:31:04;4.73;;;2.10;;
6205;SDS011;3136;48.788;9.772;2023-11-21T09:33:30;4.60;;;2.20;;
6205;SDS011;3136;48.788;9.772;2023-11-21T09:35:56;4.43;;;2.10;;
6205;SDS011;3136;48.788;9.772;2023-11-21T09:38:22;3.37;;;2.20;;
6205;SDS011;3136;48.788;9.772;2023-11-21T09:40:48;5.97;;;2.13;;
6205;SDS011;3136;48.788;9.772;2023-11-21T09:43:18;4.03;;;2.10;;
6205;SDS011;3136;48.788;9.772;2023-11-21T09:45:47;2.00;;;1.80;;
6205;SDS011;3136;48.788;9.772;2023-11-21T09:48:19;4.10;;;2.07;;
6205;SDS011;3136;48.788;9.772;2023-11-21T09:50:45;3.07;;;1.93;;
6205;SDS011;3136;48.788;9.772;2023-11-21T09:53:13;6.70;;;2.20;;
6205;SDS011;3136;48.788;9.772;2023-11-21T09:55:46;3.30;;;1.70;;
6205;SDS011;3136;48.788;9.772;2023-11-21T09:58:13;2.33;;;1.87;;
6205;SDS011;3136;48.788;9.772;2023-11-21T10:00:40;2.03;;;1.70;;
6205;SDS011;3136;48.788;9.772;2023-11-21T10:03:06;3.93;;;1.70;;
6205;SDS011;3136;48.788;9.772;2023-11-21T10:05:32;1.90;;;1.37;;
6205;SDS011;3136;48.788;9.772;2023-11-21T10:07:59;3.40;;;1.90;;
6205;SDS011;3136;48.788;9.772;2023-11-21T10:10:26;3.93;;;1.87;;
6205;SDS011;3136;48.788;9.772;2023-11-21T10:12:55;3.47;;;1.87;;
6205;SDS011;3136;48.788;9.772;2023-11-21T10:15:22;2.00;;;1.80;;
6205;SDS011;3136;48.788;9.772;2023-11-21T10:17:50;2.37;;;2.00;;
6205;SDS011;3136;48.788;9.772;2023-11-21T10:20:18;3.93;;;2.00;;
6205;SDS011;3136;48.788;9.772;2023-11-21T10:22:49;2.70;;;2.00;;
6205;SDS011;3136;48.788;9.772;2023-11-21T10:25:15;3.53;;;1.90;;
6205;SDS011;3136;48.788;9.772;2023-11-21T10:27:41;4.20;;;1.90;;
6205;SDS011;3136;48.788;9.772;2023-11-21T10:30:08;3.33;;;2.00;;
6205;SDS011;3136;48.788;9.772;2023-11-21T10:32:37;3.00;;;2.17;;
6205;SDS011;3136;48.788;9.772;2023-11-21T10:35:03;2.77;;;2.00;;
6205;SDS011;3136;48.788;9.772;2023-11-21T10:37:38;3.83;;;2.00;;
6205;SDS011;3136;48.788;9.772;2023-11-21T10:40:05;4.87;;;2.03;;
6205;SDS011;3136;48.788;9.772;2023-11-21T10:42:32;3.03;;;1.70;;
6205;SDS011;3136;48.788;9.772;2023-11-21T10:44:58;2.80;;;2.00;;
6205;SDS011;3136;48.788;9.772;2023-11-21T10:47:25;2.63;;;2.20;;
6205;SDS011;3136;48.788;9.772;2023-11-21T10:49:51;2.20;;;1.70;;
6205;SDS011;3136;48.788;9.772;2023-11-21T10:52:20;3.50;;;1.87;;
6205;SDS011;3136;48.788;9.772;2023-11-21T10:54:45;3.70;;;1.70;;
6205;SDS011;3136;48.788;9.772;2023-11-21T10:57:12;3.33;;;1.80;;
6205;SDS011;3136;48.788;9.772;2023-11-21T10:59:42;2.67;;;1.60;;
6205;SDS011;3136;48.788;9.772;2023-11-21T11:02:21;4.50;;;2.00;;
6205;SDS011;3136;48.788;9.772;2023-11-21T11:04:59;2.93;;;1.57;;
6205;SDS011;3136;48.788;9.772;2023-11-21T11:07:26;1.90;;;1.63;;
6205;SDS011;3136;48.788;9.772;2023-11-21T11:09:53;2.13;;;1.60;;
6205;SDS011;3136;48.788;9.772;2023-11-21T11:12:20;1.93;;;1.73;;
6205;SDS011;3136;48.788;9.772;2023-11-21T11:14:46;3.17;;;1.67;;
6205;SDS011;3136;48.788;9.772;2023-11-21T11:17:13;1.90;;;1.73;;
6205;SDS011;3136;48.788;9.772;2023-11-21T11:19:38;1.87;;;1.60;;
6205;SDS011;3136;48.788;9.772;2023-11-21T11:28:04;1.90;;;1.80;;
6205;SDS011;3136;48.788;9.772;2023-11-21T11:30:35;3.13;;;1.80;;
6205;SDS011;3136;48.788;9.772;2023-11-21T11:33:34;1.90;;;1.60;;
6205;SDS011;3136;48.788;9.772;2023-11-21T11:38:56;2.43;;;1.73;;
6205;SDS011;3136;48.788;9.772;2023-11-21T11:41:25;3.30;;;2.23;;
6205;SDS011;3136;48.788;9.772;2023-11-21T11:43:52;3.40;;;2.10;;
6205;SDS011;3136;48.788;9.772;2023-11-21T11:46:19;3.37;;;1.90;;
6205;SDS011;3136;48.788;9.772;2023-11-21T11:48:46;4.10;;;1.63;;
6205;SDS011;3136;48.788;9.772;2023-11-21T11:51:14;3.70;;;1.60;;
6205;SDS011;3136;48.788;9.772;2023-11-21T11:53:42;1.53;;;1.43;;
6205;SDS011;3136;48.788;9.772;2023-11-21T11:56:21;1.30;;;1.20;;
6205;SDS011;3136;48.788;9.772;2023-11-21T11:58:50;2.77;;;1.50;;
6205;SDS011;3136;48.788;9.772;2023-11-21T12:01:18;4.13;;;1.60;;
6205;SDS011;3136;48.788;9.772;2023-11-21T12:03:44;1.37;;;1.20;;
6205;SDS011;3136;48.788;9.772;2023-11-21T12:06:33;2.60;;;1.40;;
6205;SDS011;3136;48.788;9.772;2023-11-21T12:09:02;2.27;;;1.30;;
6205;SDS011;3136;48.788;9.772;2023-11-21T12:11:31;1.30;;;1.20;;
6205;SDS011;3136;48.788;9.772;2023-11-21T12:13:58;2.00;;;1.30;;
6205;SDS011;3136;48.788;9.772;2023-11-21T12:16:25;2.00;;;1.20;;
6205;SDS011;3136;48.788;9.772;2023-11-21T12:18:53;3.33;;;1.20;;
6205;SDS011;3136;48.788;9.772;2023-11-21T12:21:22;3.07;;;1.40;;
6205;SDS011;3136;48.788;9.772;2023-11-21T12:23:48;2.83;;;1.70;;
6205;SDS011;3136;48.788;9.772;2023-11-21T12:26:14;3.13;;;2.00;;
6205;SDS011;3136;48.788;9.772;2023-11-21T12:28:39;2.70;;;2.00;;
6205;SDS011;3136;48.788;9.772;2023-11-21T12:31:05;3.13;;;1.40;;
6205;SDS011;3136;48.788;9.772;2023-11-21T12:33:34;2.57;;;1.50;;
6205;SDS011;3136;48.788;9.772;2023-11-21T12:36:00;1.50;;;1.30;;
6205;SDS011;3136;48.788;9.772;2023-11-21T12:38:33;2.07;;;1.17;;
6205;SDS011;3136;48.788;9.772;2023-11-21T12:41:00;1.23;;;1.13;;
6205;SDS011;3136;48.788;9.772;2023-11-21T12:43:25;2.27;;;1.27;;
6205;SDS011;3136;48.788;9.772;2023-11-21T12:45:51;1.10;;;1.00;;
6205;SDS011;3136;48.788;9.772;2023-11-21T12:48:42;4.40;;;1.10;;
6205;SDS011;3136;48.788;9.772;2023-11-21T12:51:10;3.43;;;1.47;;
6205;SDS011;3136;48.788;9.772;2023-11-21T12:53:39;1.60;;;1.10;;
6205;SDS011;3136;48.788;9.772;2023-11-21T12:56:06;1.63;;;1.20;;
6205;SDS011;3136;48.788;9.772;2023-11-21T12:58:34;1.43;;;1.20;;
6205;SDS011;3136;48.788;9.772;2023-11-21T13:01:07;1.87;;;1.40;;
6205;SDS011;3136;48.788;9.772;2023-11-21T13:03:43;3.43;;;1.33;;
6205;SDS011;3136;48.788;9.772;2023-11-21T13:06:13;2.67;;;1.20;;
6205;SDS011;3136;48.788;9.772;2023-11-21T13:08:39;1.60;;;1.17;;
6205;SDS011;3136;48.788;9.772;2023-11-21T13:11:05;1.67;;;1.30;;
6205;SDS011;3136;48.788;9.772;2023-11-21T13:13:31;2.83;;;1.60;;
6205;SDS011;3136;48.788;9.772;2023-11-21T13:15:59;1.60;;;1.30;;
6205;SDS011;3136;48.788;9.772;2023-11-21T13:18:29;2.57;;;1.50;;
6205;SDS011;3136;48.788;9.772;2023-11-21T13:20:56;2.93;;;1.60;;
6205;SDS011;3136;48.788;9.772;2023-11-21T13:23:25;3.33;;;1.30;;
6205;SDS011;3136;48.788;9.772;2023-11-21T13:25:52;2.10;;;1.40;;
6205;SDS011;3136;48.788;9.772;2023-11-21T13:28:18;1.77;;;1.40;;
6205;SDS011;3136;48.788;9.772;2023-11-21T13:30:46;3.63;;;1.80;;
6205;SDS011;3136;48.788;9.772;2023-11-21T13:33:13;1.83;;;1.50;;
6205;SDS011;3136;48.788;9.772;2023-11-21T13:35:42;1.37;;;1.13;;
6205;SDS011;3136;48.788;9.772;2023-11-21T13:38:14;1.53;;;1.20;;
6205;SDS011;3136;48.788;9.772;2023-11-21T13:40:42;2.93;;;1.57;;
6205;SDS011;3136;48.788;9.772;2023-11-21T13:43:14;3.57;;;1.37;;
6205;SDS011;3136;48.788;9.772;2023-11-21T13:45:46;1.03;;;0.87;;
6205;SDS011;3136;48.788;9.772;2023-11-21T13:48:17;2.30;;;1.20;;
6205;SDS011;3136;48.788;9.772;2023-11-21T13:50:45;1.00;;;1.00;;
6205;SDS011;3136;48.788;9.772;2023-11-21T13:53:20;2.07;;;1.50;;
6205;SDS011;3136;48.788;9.772;2023-11-21T13:55:49;1.53;;;1.43;;
6205;SDS011;3136;48.788;9.772;2023-11-21T13:58:16;4.80;;;1.80;;
6205;SDS011;3136;48.788;9.772;2023-11-21T14:00:48;2.47;;;1.50;;
6205;SDS011;3136;48.788;9.772;2023-11-21T14:03:21;1.83;;;1.53;;
6205;SDS011;3136;48.788;9.772;2023-11-21T14:05:48;2.00;;;1.53;;
6205;SDS011;3136;48.788;9.772;2023-11-21T14:08:17;2.07;;;1.60;;
6205;SDS011;3136;48.788;9.772;2023-11-21T14:10:45;2.20;;;1.70;;
6205;SDS011;3136;48.788;9.772;2023-11-21T14:13:15;1.60;;;1.50;;
6205;SDS011;3136;48.788;9.772;2023-11-21T14:15:48;2.00;;;1.70;;
6205;SDS011;3136;48.788;9.772;2023-11-21T14:18:16;2.13;;;1.60;;
6205;SDS011;3136;48.788;9.772;2023-11-21T14:20:42;1.73;;;1.50;;
6205;SDS011;3136;48.788;9.772;2023-11-21T14:23:09;4.27;;;2.10;;
6205;SDS011;3136;48.788;9.772;2023-11-21T14:25:35;1.73;;;1.30;;
6205;SDS011;3136;48.788;9.772;2023-11-21T14:28:02;0.90;;;0.90;;
6205;SDS011;3136;48.788;9.772;2023-11-21T14:30:29;1.30;;;1.10;;
6205;SDS011;3136;48.788;9.772;2023-11-21T14:32:57;2.43;;;1.00;;
6205;SDS011;3136;48.788;9.772;2023-11-21T14:35:23;1.80;;;1.17;;
6205;SDS011;3136;48.788;9.772;2023-11-21T14:37:49;3.47;;;1.10;;
6205;SDS011;3136;48.788;9.772;2023-11-21T14:40:14;1.27;;;1.03;;
6205;SDS011;3136;48.788;9.772;2023-11-21T14:42:41;2.90;;;1.47;;
6205;SDS011;3136;48.788;9.772;2023-11-21T14:45:07;1.27;;;1.00;;
6205;SDS011;3136;48.788;9.772;2023-11-21T14:47:37;1.40;;;1.20;;
6205;SDS011;3136;48.788;9.772;2023-11-21T14:50:07;2.07;;;1.63;;
6205;SDS011;3136;48.788;9.772;2023-11-21T14:52:53;2.63;;;1.53;;
6205;SDS011;3136;48.788;9.772;2023-11-21T14:55:24;1.60;;;1.50;;
6205;SDS011;3136;48.788;9.772;2023-11-21T14:58:08;2.73;;;1.90;;
6205;SDS011;3136;48.788;9.772;2023-11-21T15:00:37;2.57;;;2.00;;
6205;SDS011;3136;48.788;9.772;2023-11-21T15:03:09;2.17;;;1.70;;
6205;SDS011;3136;48.788;9.772;2023-11-21T15:05:43;3.80;;;2.00;;
6205;SDS011;3136;48.788;9.772;2023-11-21T15:08:08;4.53;;;2.37;;
6205;SDS011;3136;48.788;9.772;2023-11-21T15:10:45;2.90;;;2.10;;
6205;SDS011;3136;48.788;9.772;2023-11-21T15:13:13;2.73;;;2.00;;
6205;SDS011;3136;48.788;9.772;2023-11-21T15:15:40;5.00;;;2.50;;
6205;SDS011;3136;48.788;9.772;2023-11-21T15:18:06;4.40;;;2.47;;
6205;SDS011;3136;48.788;9.772;2023-11-21T15:20:32;3.53;;;2.60;;
6205;SDS011;3136;48.788;9.772;2023-11-21T15:22:58;4.00;;;2.67;;